Gages Lake, Illinois
Current Conditions -  °F | °C
As of 8:55 AM on Sunday 21 Dec 2014 (Local Time) from KUGN Reporting Station
Haze Haze  
Wind Chill: 26°   Ceiling: 3900
Heat Index: 33°   Visibility: 6mi
Dew Point: 27°   Wind: 8mph
Humidity: 78%   Direction: 170°S
Pressure: 30.18"   Gusts: NA
Location:  42.3279°N, 88.0546°W
Report Text: KUGN 211455Z 17007KT 6SM HZ OVC039 01/M03 A3018 RMK AO2 SLP232 T00061028 $
Loading
Personal Weather Stations






























Interactive Weather Map New forecast layout! Learn more

10-Day Weather Forecast

Advertisements
Track Severe Weather on mobile